Terminal Aerodrome Forecast
Issued by NWS Salt Lake City, UT

Home | Current Version | Previous Version | Text Only | Print | Product List | Glossary On
Versions: 1 2 3 4 5 6 7 8 9 10 11 12 13 14 15 16 17 18 19 20 21 22 23 24 25 26 27 28 29 30 31 32 33 34 35 36 37 38 39 40 41 42 43 44 45 46 47 48 49
000
FTUS45 KSLC 281730
TAFSLC
TAF
KSLC 281730Z 2818/2924 31009KT P6SM SCT130
     FM282000 31012G18KT P6SM SCT130
     FM290200 33006KT P6SM SKC
     FM291100 12005KT P6SM SKC
     FM291700 31007KT P6SM SKC=

USA.gov is the U.S. government's official web portal to all federal, state and local government web resources and services.